sensor_id;sensor_type;location;lat;lon;timestamp;pressure;altitude;pressure_sealevel;temperature;humidity
66801;BME280;53703;50.326;19.122;2023-06-26T00:01:27;98764.88;;;21.32;55.38
66801;BME280;53703;50.326;19.122;2023-06-26T00:04:24;98763.36;;;21.32;55.50
66801;BME280;53703;50.326;19.122;2023-06-26T00:07:18;98762.83;;;21.29;55.35
66801;BME280;53703;50.326;19.122;2023-06-26T00:10:12;98765.32;;;21.26;55.46
66801;BME280;53703;50.326;19.122;2023-06-26T00:13:06;98765.27;;;21.28;55.41
66801;BME280;53703;50.326;19.122;2023-06-26T00:16:00;98767.22;;;21.26;55.44
66801;BME280;53703;50.326;19.122;2023-06-26T00:18:55;98767.70;;;21.26;55.38
66801;BME280;53703;50.326;19.122;2023-06-26T00:21:51;98765.61;;;21.25;55.43
66801;BME280;53703;50.326;19.122;2023-06-26T00:24:45;98765.91;;;21.23;55.46
66801;BME280;53703;50.326;19.122;2023-06-26T00:27:39;98767.37;;;21.25;55.44
66801;BME280;53703;50.326;19.122;2023-06-26T00:30:33;98766.35;;;21.21;55.62
66801;BME280;53703;50.326;19.122;2023-06-26T00:33:28;98764.20;;;21.21;55.54
66801;BME280;53703;50.326;19.122;2023-06-26T00:36:22;98770.21;;;21.25;55.42
66801;BME280;53703;50.326;19.122;2023-06-26T00:39:16;98768.81;;;21.26;55.49
66801;BME280;53703;50.326;19.122;2023-06-26T00:42:11;98760.64;;;21.26;55.44
66801;BME280;53703;50.326;19.122;2023-06-26T00:45:06;98759.40;;;21.23;55.49
66801;BME280;53703;50.326;19.122;2023-06-26T00:48:00;98757.95;;;21.21;55.41
66801;BME280;53703;50.326;19.122;2023-06-26T00:50:54;98754.70;;;21.18;55.56
66801;BME280;53703;50.326;19.122;2023-06-26T00:53:49;98753.40;;;21.15;55.39
66801;BME280;53703;50.326;19.122;2023-06-26T00:56:43;98756.09;;;21.15;55.38
66801;BME280;53703;50.326;19.122;2023-06-26T00:59:37;98755.92;;;21.15;55.34
66801;BME280;53703;50.326;19.122;2023-06-26T01:02:32;98760.04;;;21.15;55.30
66801;BME280;53703;50.326;19.122;2023-06-26T01:05:27;98753.83;;;21.13;55.34
66801;BME280;53703;50.326;19.122;2023-06-26T01:08:23;98751.69;;;21.13;55.26
66801;BME280;53703;50.326;19.122;2023-06-26T01:11:18;98750.85;;;21.10;55.24
66801;BME280;53703;50.326;19.122;2023-06-26T01:14:12;98748.05;;;21.09;55.30
66801;BME280;53703;50.326;19.122;2023-06-26T01:17:07;98748.89;;;21.08;55.16
66801;BME280;53703;50.326;19.122;2023-06-26T01:20:07;98745.30;;;21.06;55.20
66801;BME280;53703;50.326;19.122;2023-06-26T01:23:07;98751.45;;;21.04;55.15
66801;BME280;53703;50.326;19.122;2023-06-26T01:26:20;98746.60;;;21.04;55.15
66801;BME280;53703;50.326;19.122;2023-06-26T01:29:16;98744.81;;;21.06;55.01
66801;BME280;53703;50.326;19.122;2023-06-26T01:32:11;98744.27;;;21.06;55.11
66801;BME280;53703;50.326;19.122;2023-06-26T01:35:07;98737.63;;;21.03;54.98
66801;BME280;53703;50.326;19.122;2023-06-26T01:38:15;98736.80;;;21.01;55.07
66801;BME280;53703;50.326;19.122;2023-06-26T01:41:10;98732.62;;;21.02;55.11
66801;BME280;53703;50.326;19.122;2023-06-26T01:44:30;98731.45;;;21.04;55.18
66801;BME280;53703;50.326;19.122;2023-06-26T01:47:31;98734.73;;;21.00;55.14
66801;BME280;53703;50.326;19.122;2023-06-26T01:50:30;98730.33;;;20.98;55.07
66801;BME280;53703;50.326;19.122;2023-06-26T01:53:35;98728.89;;;20.97;55.18
66801;BME280;53703;50.326;19.122;2023-06-26T01:56:31;98728.96;;;20.97;55.02
66801;BME280;53703;50.326;19.122;2023-06-26T01:59:25;98730.30;;;20.92;55.25
66801;BME280;53703;50.326;19.122;2023-06-26T02:02:21;98729.99;;;20.92;55.22
66801;BME280;53703;50.326;19.122;2023-06-26T02:05:17;98731.13;;;20.94;55.20
66801;BME280;53703;50.326;19.122;2023-06-26T02:08:13;98727.17;;;20.94;55.34
66801;BME280;53703;50.326;19.122;2023-06-26T02:11:07;98729.66;;;20.92;55.26
66801;BME280;53703;50.326;19.122;2023-06-26T02:14:02;98727.45;;;20.92;55.16
66801;BME280;53703;50.326;19.122;2023-06-26T02:16:56;98722.63;;;20.92;55.22
66801;BME280;53703;50.326;19.122;2023-06-26T02:19:50;98720.84;;;20.90;55.09
66801;BME280;53703;50.326;19.122;2023-06-26T02:22:44;98722.01;;;20.89;55.14
66801;BME280;53703;50.326;19.122;2023-06-26T02:25:39;98720.11;;;20.90;54.94
66801;BME280;53703;50.326;19.122;2023-06-26T02:28:33;98720.91;;;20.90;55.05
66801;BME280;53703;50.326;19.122;2023-06-26T02:31:27;98721.42;;;20.88;54.95
66801;BME280;53703;50.326;19.122;2023-06-26T02:34:21;98722.82;;;20.87;54.75
66801;BME280;53703;50.326;19.122;2023-06-26T02:37:15;98722.83;;;20.87;54.88
66801;BME280;53703;50.326;19.122;2023-06-26T02:40:11;98722.59;;;20.87;54.73
66801;BME280;53703;50.326;19.122;2023-06-26T02:43:05;98728.37;;;20.87;54.66
66801;BME280;53703;50.326;19.122;2023-06-26T02:45:59;98725.29;;;20.84;54.51
66801;BME280;53703;50.326;19.122;2023-06-26T02:48:53;98726.29;;;20.83;54.62
66801;BME280;53703;50.326;19.122;2023-06-26T02:51:47;98723.95;;;20.81;54.63
66801;BME280;53703;50.326;19.122;2023-06-26T02:54:41;98728.35;;;20.83;54.54
66801;BME280;53703;50.326;19.122;2023-06-26T02:57:36;98726.20;;;20.82;54.48
66801;BME280;53703;50.326;19.122;2023-06-26T03:00:30;98728.54;;;20.80;54.57
66801;BME280;53703;50.326;19.122;2023-06-26T03:03:24;98724.50;;;20.80;54.61
66801;BME280;53703;50.326;19.122;2023-06-26T03:06:18;98726.23;;;20.79;54.52
66801;BME280;53703;50.326;19.122;2023-06-26T03:09:12;98725.04;;;20.76;54.76
66801;BME280;53703;50.326;19.122;2023-06-26T03:12:08;98728.25;;;20.78;54.72
66801;BME280;53703;50.326;19.122;2023-06-26T03:15:02;98728.80;;;20.77;54.51
66801;BME280;53703;50.326;19.122;2023-06-26T03:17:56;98727.98;;;20.76;54.65
66801;BME280;53703;50.326;19.122;2023-06-26T03:20:51;98726.45;;;20.75;54.61
66801;BME280;53703;50.326;19.122;2023-06-26T03:23:46;98727.17;;;20.76;54.59
66801;BME280;53703;50.326;19.122;2023-06-26T03:26:41;98725.96;;;20.74;54.63
66801;BME280;53703;50.326;19.122;2023-06-26T03:29:35;98729.26;;;20.72;54.85
66801;BME280;53703;50.326;19.122;2023-06-26T03:32:29;98727.52;;;20.72;54.77
66801;BME280;53703;50.326;19.122;2023-06-26T03:35:23;98731.73;;;20.77;54.75
66801;BME280;53703;50.326;19.122;2023-06-26T03:38:19;98729.20;;;20.77;54.70
66801;BME280;53703;50.326;19.122;2023-06-26T03:41:13;98734.91;;;20.78;54.73
66801;BME280;53703;50.326;19.122;2023-06-26T03:44:08;98731.65;;;20.77;54.81
66801;BME280;53703;50.326;19.122;2023-06-26T03:47:02;98734.92;;;20.78;54.90
66801;BME280;53703;50.326;19.122;2023-06-26T03:49:56;98731.55;;;20.80;54.93
66801;BME280;53703;50.326;19.122;2023-06-26T03:52:50;98732.36;;;20.81;55.01
66801;BME280;53703;50.326;19.122;2023-06-26T03:55:47;98730.96;;;20.86;54.99
66801;BME280;53703;50.326;19.122;2023-06-26T03:58:41;98732.04;;;20.84;55.27
66801;BME280;53703;50.326;19.122;2023-06-26T04:01:37;98732.47;;;20.82;55.26
66801;BME280;53703;50.326;19.122;2023-06-26T04:04:31;98734.36;;;20.82;55.28
66801;BME280;53703;50.326;19.122;2023-06-26T04:07:25;98733.41;;;20.82;55.26
66801;BME280;53703;50.326;19.122;2023-06-26T04:10:19;98735.23;;;20.86;55.29
66801;BME280;53703;50.326;19.122;2023-06-26T04:13:13;98733.42;;;20.86;55.29
66801;BME280;53703;50.326;19.122;2023-06-26T04:16:08;98731.00;;;20.84;55.51
66801;BME280;53703;50.326;19.122;2023-06-26T04:19:04;98728.75;;;20.86;55.57
66801;BME280;53703;50.326;19.122;2023-06-26T04:21:59;98731.23;;;20.87;55.49
66801;BME280;53703;50.326;19.122;2023-06-26T04:24:53;98729.52;;;20.88;55.48
66801;BME280;53703;50.326;19.122;2023-06-26T04:27:47;98723.77;;;20.90;55.58
66801;BME280;53703;50.326;19.122;2023-06-26T04:30:41;98726.03;;;20.93;55.60
66801;BME280;53703;50.326;19.122;2023-06-26T04:33:35;98719.80;;;20.94;55.61
66801;BME280;53703;50.326;19.122;2023-06-26T04:36:34;98719.35;;;20.95;55.66
66801;BME280;53703;50.326;19.122;2023-06-26T04:39:31;98722.09;;;20.98;55.58
66801;BME280;53703;50.326;19.122;2023-06-26T04:42:25;98723.47;;;21.00;55.62
66801;BME280;53703;50.326;19.122;2023-06-26T04:45:20;98726.59;;;21.02;55.87
66801;BME280;53703;50.326;19.122;2023-06-26T04:48:14;98728.59;;;21.03;55.87
66801;BME280;53703;50.326;19.122;2023-06-26T04:51:08;98725.79;;;21.06;55.64
66801;BME280;53703;50.326;19.122;2023-06-26T04:54:02;98722.87;;;21.06;55.85
66801;BME280;53703;50.326;19.122;2023-06-26T04:56:56;98724.21;;;21.06;55.88
66801;BME280;53703;50.326;19.122;2023-06-26T04:59:51;98727.23;;;21.07;55.74
66801;BME280;53703;50.326;19.122;2023-06-26T05:02:46;98723.08;;;21.09;55.63
66801;BME280;53703;50.326;19.122;2023-06-26T05:05:40;98722.29;;;21.13;55.64
66801;BME280;53703;50.326;19.122;2023-06-26T05:08:34;98726.73;;;21.14;55.67
66801;BME280;53703;50.326;19.122;2023-06-26T05:11:28;98721.82;;;21.14;55.71
66801;BME280;53703;50.326;19.122;2023-06-26T05:14:23;98725.52;;;21.17;55.71
66801;BME280;53703;50.326;19.122;2023-06-26T05:17:18;98728.17;;;21.19;55.70
66801;BME280;53703;50.326;19.122;2023-06-26T05:20:13;98726.14;;;21.21;55.60
66801;BME280;53703;50.326;19.122;2023-06-26T05:23:08;98725.23;;;21.23;55.47
66801;BME280;53703;50.326;19.122;2023-06-26T05:26:05;98726.90;;;21.24;55.70
66801;BME280;53703;50.326;19.122;2023-06-26T05:29:00;98723.98;;;20.97;56.44
66801;BME280;53703;50.326;19.122;2023-06-26T05:31:57;98724.29;;;21.20;55.92
66801;BME280;53703;50.326;19.122;2023-06-26T05:34:52;98725.92;;;21.27;55.72
66801;BME280;53703;50.326;19.122;2023-06-26T05:37:52;98723.42;;;21.29;55.84
66801;BME280;53703;50.326;19.122;2023-06-26T05:40:49;98722.48;;;21.30;55.65
66801;BME280;53703;50.326;19.122;2023-06-26T05:43:44;98722.77;;;21.33;55.56
66801;BME280;53703;50.326;19.122;2023-06-26T05:46:39;98725.00;;;21.38;55.58
66801;BME280;53703;50.326;19.122;2023-06-26T05:49:33;98722.27;;;21.36;55.52
66801;BME280;53703;50.326;19.122;2023-06-26T05:52:29;98723.11;;;21.39;55.41
66801;BME280;53703;50.326;19.122;2023-06-26T05:55:27;98719.21;;;21.43;55.27
66801;BME280;53703;50.326;19.122;2023-06-26T05:58:21;98720.78;;;21.42;55.72
66801;BME280;53703;50.326;19.122;2023-06-26T06:01:17;98717.30;;;21.43;55.73
66801;BME280;53703;50.326;19.122;2023-06-26T06:04:11;98717.23;;;21.35;55.86
66801;BME280;53703;50.326;19.122;2023-06-26T06:07:06;98718.91;;;21.30;55.97
66801;BME280;53703;50.326;19.122;2023-06-26T06:10:00;98718.48;;;21.42;55.88
66801;BME280;53703;50.326;19.122;2023-06-26T06:12:55;98712.52;;;21.46;55.93
66801;BME280;53703;50.326;19.122;2023-06-26T06:15:49;98708.73;;;21.47;55.57
66801;BME280;53703;50.326;19.122;2023-06-26T06:18:43;98704.30;;;21.48;55.55
66801;BME280;53703;50.326;19.122;2023-06-26T06:21:37;98707.39;;;21.53;55.44
66801;BME280;53703;50.326;19.122;2023-06-26T06:24:31;98708.84;;;21.60;55.48
66801;BME280;53703;50.326;19.122;2023-06-26T06:27:25;98713.50;;;21.57;55.66
66801;BME280;53703;50.326;19.122;2023-06-26T06:30:19;98711.59;;;21.58;55.52
66801;BME280;53703;50.326;19.122;2023-06-26T06:33:33;98715.45;;;21.66;55.86
66801;BME280;53703;50.326;19.122;2023-06-26T06:36:27;98712.36;;;21.67;55.56
66801;BME280;53703;50.326;19.122;2023-06-26T06:39:21;98713.44;;;21.64;55.73
66801;BME280;53703;50.326;19.122;2023-06-26T06:42:15;98711.48;;;21.61;55.88
66801;BME280;53703;50.326;19.122;2023-06-26T06:45:10;98715.58;;;21.65;55.85
66801;BME280;53703;50.326;19.122;2023-06-26T06:48:05;98712.95;;;21.69;55.84
66801;BME280;53703;50.326;19.122;2023-06-26T06:50:59;98713.87;;;21.71;55.75
66801;BME280;53703;50.326;19.122;2023-06-26T06:53:53;98712.57;;;21.70;56.09
66801;BME280;53703;50.326;19.122;2023-06-26T06:56:47;98712.96;;;21.69;56.18
66801;BME280;53703;50.326;19.122;2023-06-26T06:59:41;98714.17;;;21.70;56.55
66801;BME280;53703;50.326;19.122;2023-06-26T07:02:37;98716.31;;;21.70;56.60
66801;BME280;53703;50.326;19.122;2023-06-26T07:05:31;98716.92;;;21.69;56.60
66801;BME280;53703;50.326;19.122;2023-06-26T07:08:25;98714.35;;;21.71;56.34
66801;BME280;53703;50.326;19.122;2023-06-26T07:11:19;98715.32;;;21.76;56.07
66801;BME280;53703;50.326;19.122;2023-06-26T07:14:13;98714.89;;;21.71;56.47
66801;BME280;53703;50.326;19.122;2023-06-26T07:17:07;98712.87;;;21.72;56.03
66801;BME280;53703;50.326;19.122;2023-06-26T07:20:02;98710.14;;;21.71;56.55
66801;BME280;53703;50.326;19.122;2023-06-26T07:22:59;98708.93;;;21.74;56.33
66801;BME280;53703;50.326;19.122;2023-06-26T07:25:53;98707.86;;;21.77;55.57
66801;BME280;53703;50.326;19.122;2023-06-26T07:28:47;98706.50;;;21.76;55.38
66801;BME280;53703;50.326;19.122;2023-06-26T07:31:42;98710.09;;;21.78;55.85
66801;BME280;53703;50.326;19.122;2023-06-26T07:34:38;98710.64;;;21.77;56.08
66801;BME280;53703;50.326;19.122;2023-06-26T07:37:32;98710.33;;;21.77;55.58
66801;BME280;53703;50.326;19.122;2023-06-26T07:40:26;98709.13;;;21.72;56.35
66801;BME280;53703;50.326;19.122;2023-06-26T07:43:21;98708.31;;;21.75;56.34
66801;BME280;53703;50.326;19.122;2023-06-26T07:46:15;98710.27;;;21.74;57.03
66801;BME280;53703;50.326;19.122;2023-06-26T07:49:09;98706.45;;;21.73;56.69
66801;BME280;53703;50.326;19.122;2023-06-26T07:52:05;98703.95;;;21.74;56.77
66801;BME280;53703;50.326;19.122;2023-06-26T07:54:59;98703.02;;;21.76;56.25
66801;BME280;53703;50.326;19.122;2023-06-26T07:57:53;98702.50;;;21.79;56.81
66801;BME280;53703;50.326;19.122;2023-06-26T08:00:48;98697.73;;;21.79;56.37
66801;BME280;53703;50.326;19.122;2023-06-26T08:03:42;98700.34;;;21.84;56.02
66801;BME280;53703;50.326;19.122;2023-06-26T08:06:37;98705.84;;;21.85;55.90
66801;BME280;53703;50.326;19.122;2023-06-26T08:09:34;98702.94;;;21.82;56.02
66801;BME280;53703;50.326;19.122;2023-06-26T08:12:13;98706.42;;;21.82;56.74
66801;BME280;53703;50.326;19.122;2023-06-26T08:15:09;98702.00;;;21.83;55.87
66801;BME280;53703;50.326;19.122;2023-06-26T08:18:03;98702.67;;;21.81;55.91
66801;BME280;53703;50.326;19.122;2023-06-26T08:20:57;98699.80;;;21.84;55.62
66801;BME280;53703;50.326;19.122;2023-06-26T08:23:51;98698.08;;;21.81;57.32
66801;BME280;53703;50.326;19.122;2023-06-26T08:26:46;98700.46;;;21.81;56.51
66801;BME280;53703;50.326;19.122;2023-06-26T08:29:40;98701.81;;;21.82;56.04
66801;BME280;53703;50.326;19.122;2023-06-26T08:32:34;98699.40;;;21.85;55.70
66801;BME280;53703;50.326;19.122;2023-06-26T08:35:28;98698.58;;;21.89;55.93
66801;BME280;53703;50.326;19.122;2023-06-26T08:38:22;98699.80;;;21.96;55.69
66801;BME280;53703;50.326;19.122;2023-06-26T08:41:16;98700.63;;;21.93;56.03
66801;BME280;53703;50.326;19.122;2023-06-26T08:44:10;98699.81;;;21.97;56.80
66801;BME280;53703;50.326;19.122;2023-06-26T08:47:04;98699.42;;;21.97;56.85
66801;BME280;53703;50.326;19.122;2023-06-26T08:50:07;98699.27;;;21.96;56.50
66801;BME280;53703;50.326;19.122;2023-06-26T08:53:10;98698.19;;;21.95;56.51
66801;BME280;53703;50.326;19.122;2023-06-26T08:56:08;98694.13;;;21.93;56.88
66801;BME280;53703;50.326;19.122;2023-06-26T08:59:03;98690.23;;;21.87;56.90
66801;BME280;53703;50.326;19.122;2023-06-26T09:01:58;98686.67;;;21.87;56.94
66801;BME280;53703;50.326;19.122;2023-06-26T09:04:53;98690.05;;;21.91;56.90
66801;BME280;53703;50.326;19.122;2023-06-26T09:07:47;98692.83;;;21.92;57.02
66801;BME280;53703;50.326;19.122;2023-06-26T09:10:41;98685.65;;;21.95;56.74
66801;BME280;53703;50.326;19.122;2023-06-26T09:13:38;98687.89;;;21.96;56.47
66801;BME280;53703;50.326;19.122;2023-06-26T09:16:33;98688.95;;;21.92;56.72
66801;BME280;53703;50.326;19.122;2023-06-26T09:19:32;98689.30;;;21.89;56.63
66801;BME280;53703;50.326;19.122;2023-06-26T09:22:29;98684.94;;;21.89;56.45
66801;BME280;53703;50.326;19.122;2023-06-26T09:25:24;98683.65;;;21.88;55.73
66801;BME280;53703;50.326;19.122;2023-06-26T09:28:19;98679.76;;;21.87;54.86
66801;BME280;53703;50.326;19.122;2023-06-26T09:31:14;98681.59;;;21.83;55.06
66801;BME280;53703;50.326;19.122;2023-06-26T09:34:33;98672.42;;;21.91;55.31
66801;BME280;53703;50.326;19.122;2023-06-26T09:37:27;98678.09;;;21.87;55.84
66801;BME280;53703;50.326;19.122;2023-06-26T09:40:21;98679.20;;;21.88;55.08
66801;BME280;53703;50.326;19.122;2023-06-26T09:43:16;98678.02;;;21.88;55.31
66801;BME280;53703;50.326;19.122;2023-06-26T09:46:16;98677.77;;;21.87;55.40
66801;BME280;53703;50.326;19.122;2023-06-26T09:49:12;98678.46;;;21.91;55.06
66801;BME280;53703;50.326;19.122;2023-06-26T09:52:07;98676.41;;;21.88;55.13
66801;BME280;53703;50.326;19.122;2023-06-26T09:55:14;98674.61;;;21.93;55.06
66801;BME280;53703;50.326;19.122;2023-06-26T09:58:09;98676.99;;;22.00;54.55
66801;BME280;53703;50.326;19.122;2023-06-26T10:01:07;98671.15;;;21.96;54.67
66801;BME280;53703;50.326;19.122;2023-06-26T10:04:02;98669.23;;;21.90;55.27
66801;BME280;53703;50.326;19.122;2023-06-26T10:07:02;98662.02;;;21.90;55.18
66801;BME280;53703;50.326;19.122;2023-06-26T10:09:58;98662.98;;;21.98;54.67
66801;BME280;53703;50.326;19.122;2023-06-26T10:13:00;98659.95;;;21.97;55.08
66801;BME280;53703;50.326;19.122;2023-06-26T10:15:59;98656.59;;;21.94;55.17
66801;BME280;53703;50.326;19.122;2023-06-26T10:19:01;98652.48;;;21.89;55.39
66801;BME280;53703;50.326;19.122;2023-06-26T10:21:56;98649.18;;;21.86;55.33
66801;BME280;53703;50.326;19.122;2023-06-26T10:24:52;98646.50;;;21.87;55.35
66801;BME280;53703;50.326;19.122;2023-06-26T10:27:53;98643.92;;;21.91;55.24
66801;BME280;53703;50.326;19.122;2023-06-26T10:30:42;98641.07;;;21.91;55.35
66801;BME280;53703;50.326;19.122;2023-06-26T10:33:38;98634.60;;;21.87;55.29
66801;BME280;53703;50.326;19.122;2023-06-26T10:36:33;98633.36;;;21.90;54.65
66801;BME280;53703;50.326;19.122;2023-06-26T10:39:29;98627.45;;;21.87;53.78
66801;BME280;53703;50.326;19.122;2023-06-26T10:42:43;98625.79;;;21.88;53.74
66801;BME280;53703;50.326;19.122;2023-06-26T10:45:42;98626.41;;;21.86;53.74
66801;BME280;53703;50.326;19.122;2023-06-26T10:48:57;98624.77;;;21.88;53.98
66801;BME280;53703;50.326;19.122;2023-06-26T10:51:52;98625.77;;;21.93;54.35
66801;BME280;53703;50.326;19.122;2023-06-26T10:54:48;98624.17;;;21.92;54.73
66801;BME280;53703;50.326;19.122;2023-06-26T10:57:46;98625.92;;;21.92;54.89
66801;BME280;53703;50.326;19.122;2023-06-26T11:01:15;98622.80;;;21.90;54.90
66801;BME280;53703;50.326;19.122;2023-06-26T11:04:10;98620.14;;;21.93;54.85
66801;BME280;53703;50.326;19.122;2023-06-26T11:10:13;98618.67;;;22.02;54.46
66801;BME280;53703;50.326;19.122;2023-06-26T11:13:08;98614.52;;;22.01;54.35
66801;BME280;53703;50.326;19.122;2023-06-26T11:16:05;98611.27;;;22.01;54.05
66801;BME280;53703;50.326;19.122;2023-06-26T11:19:03;98616.91;;;22.01;53.99
66801;BME280;53703;50.326;19.122;2023-06-26T11:22:03;98615.70;;;21.99;54.57
66801;BME280;53703;50.326;19.122;2023-06-26T11:25:00;98607.50;;;21.97;54.36
66801;BME280;53703;50.326;19.122;2023-06-26T11:27:57;98609.10;;;21.93;54.41
66801;BME280;53703;50.326;19.122;2023-06-26T11:30:51;98610.02;;;22.02;53.73
66801;BME280;53703;50.326;19.122;2023-06-26T11:33:50;98609.24;;;21.97;54.14
66801;BME280;53703;50.326;19.122;2023-06-26T11:36:45;98601.90;;;22.01;54.07
66801;BME280;53703;50.326;19.122;2023-06-26T11:39:40;98596.50;;;22.01;53.96
66801;BME280;53703;50.326;19.122;2023-06-26T11:42:34;98595.19;;;21.97;54.14
66801;BME280;53703;50.326;19.122;2023-06-26T11:45:30;98596.02;;;22.02;53.25
66801;BME280;53703;50.326;19.122;2023-06-26T11:48:26;98598.98;;;22.03;53.68
66801;BME280;53703;50.326;19.122;2023-06-26T11:51:08;98595.30;;;22.00;62.50
66801;BME280;53703;50.326;19.122;2023-06-26T11:54:04;98590.89;;;21.91;60.62
66801;BME280;53703;50.326;19.122;2023-06-26T11:57:02;98591.59;;;21.88;59.44
66801;BME280;53703;50.326;19.122;2023-06-26T11:59:56;98590.55;;;21.87;58.01
66801;BME280;53703;50.326;19.122;2023-06-26T12:02:50;98586.58;;;21.82;57.59
66801;BME280;53703;50.326;19.122;2023-06-26T12:05:44;98588.59;;;21.91;55.36
66801;BME280;53703;50.326;19.122;2023-06-26T12:08:39;98580.69;;;21.93;54.47
66801;BME280;53703;50.326;19.122;2023-06-26T12:11:35;98579.79;;;21.91;52.95
66801;BME280;53703;50.326;19.122;2023-06-26T12:14:30;98573.83;;;21.89;52.41
66801;BME280;53703;50.326;19.122;2023-06-26T12:17:26;98571.42;;;21.89;52.11
66801;BME280;53703;50.326;19.122;2023-06-26T12:20:24;98567.57;;;21.90;51.83
66801;BME280;53703;50.326;19.122;2023-06-26T12:23:19;98568.14;;;21.93;51.97
66801;BME280;53703;50.326;19.122;2023-06-26T12:26:22;98565.94;;;22.01;51.57
66801;BME280;53703;50.326;19.122;2023-06-26T12:29:06;98560.85;;;22.00;51.46
66801;BME280;53703;50.326;19.122;2023-06-26T12:32:01;98559.63;;;21.98;51.94
66801;BME280;53703;50.326;19.122;2023-06-26T12:34:57;98560.94;;;22.00;52.11
66801;BME280;53703;50.326;19.122;2023-06-26T12:37:51;98559.69;;;22.03;52.47
66801;BME280;53703;50.326;19.122;2023-06-26T12:40:50;98558.83;;;22.03;52.78
66801;BME280;53703;50.326;19.122;2023-06-26T12:43:44;98558.02;;;22.03;53.09
66801;BME280;53703;50.326;19.122;2023-06-26T12:46:39;98555.42;;;22.05;52.68
66801;BME280;53703;50.326;19.122;2023-06-26T12:49:36;98555.40;;;22.03;53.39
66801;BME280;53703;50.326;19.122;2023-06-26T12:52:30;98555.33;;;22.04;53.42
66801;BME280;53703;50.326;19.122;2023-06-26T12:55:25;98555.58;;;22.05;52.67
66801;BME280;53703;50.326;19.122;2023-06-26T12:58:19;98554.78;;;22.05;52.52
66801;BME280;53703;50.326;19.122;2023-06-26T13:01:13;98552.38;;;22.02;52.53
66801;BME280;53703;50.326;19.122;2023-06-26T13:04:08;98550.47;;;22.02;52.51
66801;BME280;53703;50.326;19.122;2023-06-26T13:07:03;98549.77;;;22.03;52.44
66801;BME280;53703;50.326;19.122;2023-06-26T13:09:57;98545.02;;;22.05;52.15
66801;BME280;53703;50.326;19.122;2023-06-26T13:12:51;98541.80;;;22.00;51.76
66801;BME280;53703;50.326;19.122;2023-06-26T13:15:45;98545.72;;;22.04;51.67
66801;BME280;53703;50.326;19.122;2023-06-26T13:18:39;98540.55;;;22.03;51.29
66801;BME280;53703;50.326;19.122;2023-06-26T13:21:34;98546.98;;;22.04;51.34
66801;BME280;53703;50.326;19.122;2023-06-26T13:24:28;98543.14;;;22.02;51.39
66801;BME280;53703;50.326;19.122;2023-06-26T13:27:22;98536.66;;;22.03;51.04
66801;BME280;53703;50.326;19.122;2023-06-26T13:30:18;98533.46;;;22.00;51.04
66801;BME280;53703;50.326;19.122;2023-06-26T13:33:13;98533.79;;;22.02;50.93
66801;BME280;53703;50.326;19.122;2023-06-26T13:36:07;98531.48;;;22.01;50.71
66801;BME280;53703;50.326;19.122;2023-06-26T13:39:01;98532.21;;;22.02;51.02
66801;BME280;53703;50.326;19.122;2023-06-26T13:41:56;98529.34;;;22.00;50.92
66801;BME280;53703;50.326;19.122;2023-06-26T13:44:51;98529.90;;;21.94;50.98
66801;BME280;53703;50.326;19.122;2023-06-26T13:47:56;98525.01;;;21.97;51.21
66801;BME280;53703;50.326;19.122;2023-06-26T13:50:50;98520.59;;;21.98;51.37
66801;BME280;53703;50.326;19.122;2023-06-26T13:53:46;98518.61;;;21.94;51.96
66801;BME280;53703;50.326;19.122;2023-06-26T13:56:40;98513.80;;;21.95;51.76
66801;BME280;53703;50.326;19.122;2023-06-26T13:59:36;98513.72;;;21.96;52.35
66801;BME280;53703;50.326;19.122;2023-06-26T14:02:30;98509.16;;;22.00;51.83
66801;BME280;53703;50.326;19.122;2023-06-26T14:05:25;98506.42;;;22.03;51.33
66801;BME280;53703;50.326;19.122;2023-06-26T14:08:26;98501.48;;;22.02;51.26
66801;BME280;53703;50.326;19.122;2023-06-26T14:11:11;98494.94;;;21.99;52.06
66801;BME280;53703;50.326;19.122;2023-06-26T14:14:09;98491.19;;;21.97;52.03
66801;BME280;53703;50.326;19.122;2023-06-26T14:17:04;98495.20;;;22.01;51.45
66801;BME280;53703;50.326;19.122;2023-06-26T14:19:59;98487.43;;;22.01;51.10
66801;BME280;53703;50.326;19.122;2023-06-26T14:22:53;98486.59;;;22.06;50.97
66801;BME280;53703;50.326;19.122;2023-06-26T14:25:47;98482.35;;;22.02;50.36
66801;BME280;53703;50.326;19.122;2023-06-26T14:28:42;98477.61;;;22.05;51.01
66801;BME280;53703;50.326;19.122;2023-06-26T14:31:37;98473.45;;;22.09;50.57
66801;BME280;53703;50.326;19.122;2023-06-26T14:34:32;98474.23;;;22.10;50.34
66801;BME280;53703;50.326;19.122;2023-06-26T14:37:26;98465.42;;;22.09;50.65
66801;BME280;53703;50.326;19.122;2023-06-26T14:40:20;98462.98;;;22.09;50.69
66801;BME280;53703;50.326;19.122;2023-06-26T14:43:15;98461.58;;;22.12;50.38
66801;BME280;53703;50.326;19.122;2023-06-26T14:46:10;98452.18;;;22.11;50.82
66801;BME280;53703;50.326;19.122;2023-06-26T14:49:05;98449.72;;;22.11;50.32
66801;BME280;53703;50.326;19.122;2023-06-26T14:52:00;98449.16;;;22.10;50.25
66801;BME280;53703;50.326;19.122;2023-06-26T14:54:54;98447.91;;;22.12;50.54
66801;BME280;53703;50.326;19.122;2023-06-26T14:57:47;98440.69;;;22.12;50.49
66801;BME280;53703;50.326;19.122;2023-06-26T15:00:42;98439.81;;;22.12;50.50
66801;BME280;53703;50.326;19.122;2023-06-26T15:03:37;98429.90;;;22.14;50.17
66801;BME280;53703;50.326;19.122;2023-06-26T15:06:31;98427.73;;;22.12;50.38
66801;BME280;53703;50.326;19.122;2023-06-26T15:09:26;98424.81;;;22.14;50.44
66801;BME280;53703;50.326;19.122;2023-06-26T15:12:20;98422.30;;;22.09;50.39
66801;BME280;53703;50.326;19.122;2023-06-26T15:15:16;98417.27;;;22.13;50.61
66801;BME280;53703;50.326;19.122;2023-06-26T15:18:10;98415.29;;;22.13;50.63
66801;BME280;53703;50.326;19.122;2023-06-26T15:21:04;98414.20;;;22.16;51.23